sensor_id;sensor_type;location;lat;lon;timestamp;P1;durP1;ratioP1;P2;durP2;ratioP2
50932;SDS011;36921;49.006;9.292;2024-03-17T00:02:23;11.07;;;5.45;;
50932;SDS011;36921;49.006;9.292;2024-03-17T00:04:48;10.18;;;5.35;;
50932;SDS011;36921;49.006;9.292;2024-03-17T00:07:14;10.57;;;6.30;;
50932;SDS011;36921;49.006;9.292;2024-03-17T00:09:40;10.48;;;6.32;;
50932;SDS011;36921;49.006;9.292;2024-03-17T00:12:06;10.02;;;5.60;;
50932;SDS011;36921;49.006;9.292;2024-03-17T00:14:34;12.93;;;6.50;;
50932;SDS011;36921;49.006;9.292;2024-03-17T00:17:00;44.92;;;6.13;;
50932;SDS011;36921;49.006;9.292;2024-03-17T00:19:26;13.18;;;5.57;;
50932;SDS011;36921;49.006;9.292;2024-03-17T00:21:51;8.95;;;5.32;;
50932;SDS011;36921;49.006;9.292;2024-03-17T00:24:17;13.90;;;5.85;;
50932;SDS011;36921;49.006;9.292;2024-03-17T00:26:44;16.73;;;6.45;;
50932;SDS011;36921;49.006;9.292;2024-03-17T00:29:10;12.57;;;7.00;;
50932;SDS011;36921;49.006;9.292;2024-03-17T00:31:35;17.77;;;6.65;;
50932;SDS011;36921;49.006;9.292;2024-03-17T00:34:00;41.22;;;8.32;;
50932;SDS011;36921;49.006;9.292;2024-03-17T00:36:26;22.05;;;7.20;;
50932;SDS011;36921;49.006;9.292;2024-03-17T00:38:51;16.58;;;8.00;;
50932;SDS011;36921;49.006;9.292;2024-03-17T00:41:17;17.13;;;7.05;;
50932;SDS011;36921;49.006;9.292;2024-03-17T00:43:44;14.18;;;7.60;;
50932;SDS011;36921;49.006;9.292;2024-03-17T00:46:09;13.07;;;7.70;;
50932;SDS011;36921;49.006;9.292;2024-03-17T00:48:35;17.45;;;8.35;;
50932;SDS011;36921;49.006;9.292;2024-03-17T00:51:00;15.02;;;7.47;;
50932;SDS011;36921;49.006;9.292;2024-03-17T00:53:26;16.13;;;6.78;;
50932;SDS011;36921;49.006;9.292;2024-03-17T00:55:52;19.02;;;7.13;;
50932;SDS011;36921;49.006;9.292;2024-03-17T00:58:19;18.23;;;7.20;;
50932;SDS011;36921;49.006;9.292;2024-03-17T01:00:46;12.75;;;6.22;;
50932;SDS011;36921;49.006;9.292;2024-03-17T01:03:13;13.23;;;6.10;;
50932;SDS011;36921;49.006;9.292;2024-03-17T01:05:40;16.92;;;6.10;;
50932;SDS011;36921;49.006;9.292;2024-03-17T01:08:10;21.02;;;6.45;;
50932;SDS011;36921;49.006;9.292;2024-03-17T01:10:39;17.15;;;6.57;;
50932;SDS011;36921;49.006;9.292;2024-03-17T01:13:06;12.20;;;5.80;;
50932;SDS011;36921;49.006;9.292;2024-03-17T01:15:32;14.82;;;6.90;;
50932;SDS011;36921;49.006;9.292;2024-03-17T01:17:58;14.10;;;5.93;;
50932;SDS011;36921;49.006;9.292;2024-03-17T01:20:25;13.25;;;6.20;;
50932;SDS011;36921;49.006;9.292;2024-03-17T01:22:50;9.23;;;5.13;;
50932;SDS011;36921;49.006;9.292;2024-03-17T01:25:16;10.07;;;5.10;;
50932;SDS011;36921;49.006;9.292;2024-03-17T01:27:41;10.15;;;5.10;;
50932;SDS011;36921;49.006;9.292;2024-03-17T01:30:08;9.98;;;5.32;;
50932;SDS011;36921;49.006;9.292;2024-03-17T01:32:35;9.75;;;5.50;;
50932;SDS011;36921;49.006;9.292;2024-03-17T01:35:00;10.07;;;5.20;;
50932;SDS011;36921;49.006;9.292;2024-03-17T01:37:26;11.23;;;5.75;;
50932;SDS011;36921;49.006;9.292;2024-03-17T01:39:52;10.45;;;5.75;;
50932;SDS011;36921;49.006;9.292;2024-03-17T01:42:17;10.45;;;5.80;;
50932;SDS011;36921;49.006;9.292;2024-03-17T01:44:43;14.25;;;6.20;;
50932;SDS011;36921;49.006;9.292;2024-03-17T01:47:08;12.55;;;6.45;;
50932;SDS011;36921;49.006;9.292;2024-03-17T01:49:34;14.93;;;6.13;;
50932;SDS011;36921;49.006;9.292;2024-03-17T01:52:00;13.90;;;6.75;;
50932;SDS011;36921;49.006;9.292;2024-03-17T01:54:27;14.35;;;6.75;;
50932;SDS011;36921;49.006;9.292;2024-03-17T01:56:52;15.25;;;7.35;;
50932;SDS011;36921;49.006;9.292;2024-03-17T01:59:18;14.57;;;7.80;;
50932;SDS011;36921;49.006;9.292;2024-03-17T02:01:44;12.07;;;6.43;;
50932;SDS011;36921;49.006;9.292;2024-03-17T02:04:09;12.50;;;6.88;;
50932;SDS011;36921;49.006;9.292;2024-03-17T02:09:19;13.40;;;7.38;;
50932;SDS011;36921;49.006;9.292;2024-03-17T02:11:47;9.95;;;6.32;;
50932;SDS011;36921;49.006;9.292;2024-03-17T02:14:13;13.82;;;6.38;;
50932;SDS011;36921;49.006;9.292;2024-03-17T02:16:40;12.57;;;6.40;;
50932;SDS011;36921;49.006;9.292;2024-03-17T02:19:06;16.52;;;6.18;;
50932;SDS011;36921;49.006;9.292;2024-03-17T02:21:31;12.45;;;7.10;;
50932;SDS011;36921;49.006;9.292;2024-03-17T02:23:57;25.60;;;6.88;;
50932;SDS011;36921;49.006;9.292;2024-03-17T02:26:25;15.93;;;6.43;;
50932;SDS011;36921;49.006;9.292;2024-03-17T02:28:51;19.98;;;6.63;;
50932;SDS011;36921;49.006;9.292;2024-03-17T02:31:17;16.63;;;7.88;;
50932;SDS011;36921;49.006;9.292;2024-03-17T02:33:43;17.40;;;7.43;;
50932;SDS011;36921;49.006;9.292;2024-03-17T02:36:10;14.55;;;6.93;;
50932;SDS011;36921;49.006;9.292;2024-03-17T02:38:36;13.95;;;6.80;;
50932;SDS011;36921;49.006;9.292;2024-03-17T02:41:21;24.90;;;6.90;;
50932;SDS011;36921;49.006;9.292;2024-03-17T02:43:47;20.23;;;6.13;;
50932;SDS011;36921;49.006;9.292;2024-03-17T02:46:16;13.65;;;5.72;;
50932;SDS011;36921;49.006;9.292;2024-03-17T02:48:44;12.98;;;5.70;;
50932;SDS011;36921;49.006;9.292;2024-03-17T02:51:15;20.08;;;6.15;;
50932;SDS011;36921;49.006;9.292;2024-03-17T02:53:42;11.02;;;5.53;;
50932;SDS011;36921;49.006;9.292;2024-03-17T02:56:12;13.77;;;5.15;;
50932;SDS011;36921;49.006;9.292;2024-03-17T02:58:41;9.85;;;5.18;;
50932;SDS011;36921;49.006;9.292;2024-03-17T03:01:08;18.90;;;6.00;;
50932;SDS011;36921;49.006;9.292;2024-03-17T03:03:36;11.98;;;5.65;;
50932;SDS011;36921;49.006;9.292;2024-03-17T03:06:02;13.40;;;5.70;;
50932;SDS011;36921;49.006;9.292;2024-03-17T03:08:40;15.38;;;6.60;;
50932;SDS011;36921;49.006;9.292;2024-03-17T03:11:11;12.30;;;6.85;;
50932;SDS011;36921;49.006;9.292;2024-03-17T03:13:40;15.23;;;7.20;;
50932;SDS011;36921;49.006;9.292;2024-03-17T03:16:08;19.23;;;8.10;;
50932;SDS011;36921;49.006;9.292;2024-03-17T03:18:35;22.35;;;7.75;;
50932;SDS011;36921;49.006;9.292;2024-03-17T03:21:01;31.45;;;7.65;;
50932;SDS011;36921;49.006;9.292;2024-03-17T03:26:42;42.92;;;9.57;;
50932;SDS011;36921;49.006;9.292;2024-03-17T03:29:10;31.08;;;8.80;;
50932;SDS011;36921;49.006;9.292;2024-03-17T03:31:36;23.63;;;8.52;;
50932;SDS011;36921;49.006;9.292;2024-03-17T03:34:01;24.45;;;8.27;;
50932;SDS011;36921;49.006;9.292;2024-03-17T03:36:28;20.35;;;7.10;;
50932;SDS011;36921;49.006;9.292;2024-03-17T03:38:53;23.38;;;7.40;;
50932;SDS011;36921;49.006;9.292;2024-03-17T03:41:19;17.63;;;6.05;;
50932;SDS011;36921;49.006;9.292;2024-03-17T03:43:44;16.15;;;5.90;;
50932;SDS011;36921;49.006;9.292;2024-03-17T03:46:11;19.77;;;5.60;;
50932;SDS011;36921;49.006;9.292;2024-03-17T03:48:37;14.43;;;5.22;;
50932;SDS011;36921;49.006;9.292;2024-03-17T03:51:03;13.98;;;5.25;;
50932;SDS011;36921;49.006;9.292;2024-03-17T03:53:29;9.48;;;4.93;;
50932;SDS011;36921;49.006;9.292;2024-03-17T03:55:55;9.77;;;4.63;;
50932;SDS011;36921;49.006;9.292;2024-03-17T03:58:20;8.27;;;4.35;;
50932;SDS011;36921;49.006;9.292;2024-03-17T04:00:46;8.30;;;4.05;;
50932;SDS011;36921;49.006;9.292;2024-03-17T04:03:11;6.18;;;3.55;;
50932;SDS011;36921;49.006;9.292;2024-03-17T04:05:36;9.90;;;4.03;;
50932;SDS011;36921;49.006;9.292;2024-03-17T04:08:02;7.65;;;3.30;;
50932;SDS011;36921;49.006;9.292;2024-03-17T04:10:27;7.90;;;3.20;;
50932;SDS011;36921;49.006;9.292;2024-03-17T04:12:53;7.97;;;3.63;;
50932;SDS011;36921;49.006;9.292;2024-03-17T04:15:18;12.63;;;3.90;;
50932;SDS011;36921;49.006;9.292;2024-03-17T04:17:44;13.27;;;5.63;;
50932;SDS011;36921;49.006;9.292;2024-03-17T04:20:10;28.65;;;7.18;;
50932;SDS011;36921;49.006;9.292;2024-03-17T04:22:38;13.37;;;6.97;;
50932;SDS011;36921;49.006;9.292;2024-03-17T04:25:04;41.53;;;8.18;;
50932;SDS011;36921;49.006;9.292;2024-03-17T04:27:29;18.15;;;7.75;;
50932;SDS011;36921;49.006;9.292;2024-03-17T04:29:56;16.20;;;7.90;;
50932;SDS011;36921;49.006;9.292;2024-03-17T04:32:22;16.83;;;6.35;;
50932;SDS011;36921;49.006;9.292;2024-03-17T04:34:48;26.27;;;6.60;;
50932;SDS011;36921;49.006;9.292;2024-03-17T04:37:14;11.55;;;6.13;;
50932;SDS011;36921;49.006;9.292;2024-03-17T04:39:43;11.18;;;5.80;;
50932;SDS011;36921;49.006;9.292;2024-03-17T04:42:10;13.63;;;5.70;;
50932;SDS011;36921;49.006;9.292;2024-03-17T04:44:40;15.55;;;5.32;;
50932;SDS011;36921;49.006;9.292;2024-03-17T04:47:06;11.07;;;5.28;;
50932;SDS011;36921;49.006;9.292;2024-03-17T04:49:50;10.75;;;5.47;;
50932;SDS011;36921;49.006;9.292;2024-03-17T04:52:54;11.77;;;4.43;;
50932;SDS011;36921;49.006;9.292;2024-03-17T04:55:34;7.82;;;4.32;;
50932;SDS011;36921;49.006;9.292;2024-03-17T04:58:13;6.60;;;3.95;;
50932;SDS011;36921;49.006;9.292;2024-03-17T05:00:44;9.63;;;4.30;;
50932;SDS011;36921;49.006;9.292;2024-03-17T05:04:14;6.68;;;3.47;;
50932;SDS011;36921;49.006;9.292;2024-03-17T05:07:54;7.18;;;4.00;;
50932;SDS011;36921;49.006;9.292;2024-03-17T05:10:33;7.28;;;3.78;;
50932;SDS011;36921;49.006;9.292;2024-03-17T05:13:34;11.18;;;3.83;;
50932;SDS011;36921;49.006;9.292;2024-03-17T05:16:59;8.05;;;4.00;;
50932;SDS011;36921;49.006;9.292;2024-03-17T05:20:30;14.90;;;4.05;;
50932;SDS011;36921;49.006;9.292;2024-03-17T05:23:05;8.95;;;3.90;;
50932;SDS011;36921;49.006;9.292;2024-03-17T05:26:13;8.82;;;4.13;;
50932;SDS011;36921;49.006;9.292;2024-03-17T05:28:44;7.22;;;3.72;;
50932;SDS011;36921;49.006;9.292;2024-03-17T05:31:25;9.82;;;3.80;;
50932;SDS011;36921;49.006;9.292;2024-03-17T05:34:26;6.80;;;3.80;;
50932;SDS011;36921;49.006;9.292;2024-03-17T05:40:04;8.02;;;4.40;;
50932;SDS011;36921;49.006;9.292;2024-03-17T05:43:06;8.48;;;4.32;;
50932;SDS011;36921;49.006;9.292;2024-03-17T05:46:13;7.72;;;4.30;;
50932;SDS011;36921;49.006;9.292;2024-03-17T05:48:56;11.85;;;4.85;;
50932;SDS011;36921;49.006;9.292;2024-03-17T05:51:22;10.57;;;4.82;;
50932;SDS011;36921;49.006;9.292;2024-03-17T05:53:50;12.68;;;5.60;;
50932;SDS011;36921;49.006;9.292;2024-03-17T05:56:15;10.70;;;5.60;;
50932;SDS011;36921;49.006;9.292;2024-03-17T05:58:42;7.70;;;4.68;;
50932;SDS011;36921;49.006;9.292;2024-03-17T06:01:07;9.52;;;5.30;;
50932;SDS011;36921;49.006;9.292;2024-03-17T06:03:34;7.95;;;4.63;;
50932;SDS011;36921;49.006;9.292;2024-03-17T06:06:01;7.35;;;4.70;;
50932;SDS011;36921;49.006;9.292;2024-03-17T06:08:26;7.60;;;3.97;;
50932;SDS011;36921;49.006;9.292;2024-03-17T06:10:52;24.25;;;3.63;;
50932;SDS011;36921;49.006;9.292;2024-03-17T06:13:17;9.85;;;5.03;;
50932;SDS011;36921;49.006;9.292;2024-03-17T06:15:43;11.93;;;6.18;;
50932;SDS011;36921;49.006;9.292;2024-03-17T06:18:11;15.05;;;4.95;;
50932;SDS011;36921;49.006;9.292;2024-03-17T06:20:41;7.95;;;3.92;;
50932;SDS011;36921;49.006;9.292;2024-03-17T06:23:11;4.88;;;3.40;;
50932;SDS011;36921;49.006;9.292;2024-03-17T06:25:40;4.72;;;2.97;;
50932;SDS011;36921;49.006;9.292;2024-03-17T06:28:14;3.47;;;2.47;;
50932;SDS011;36921;49.006;9.292;2024-03-17T06:30:41;2.78;;;1.85;;
50932;SDS011;36921;49.006;9.292;2024-03-17T06:33:13;3.75;;;2.47;;
50932;SDS011;36921;49.006;9.292;2024-03-17T06:35:41;4.63;;;2.90;;
50932;SDS011;36921;49.006;9.292;2024-03-17T06:38:06;5.70;;;2.83;;
50932;SDS011;36921;49.006;9.292;2024-03-17T06:40:35;3.50;;;2.47;;
50932;SDS011;36921;49.006;9.292;2024-03-17T06:43:05;3.88;;;2.15;;
50932;SDS011;36921;49.006;9.292;2024-03-17T06:45:31;6.15;;;2.22;;
50932;SDS011;36921;49.006;9.292;2024-03-17T06:47:57;3.75;;;1.90;;
50932;SDS011;36921;49.006;9.292;2024-03-17T06:50:23;2.85;;;1.92;;
50932;SDS011;36921;49.006;9.292;2024-03-17T06:52:49;3.17;;;1.80;;
50932;SDS011;36921;49.006;9.292;2024-03-17T06:55:14;1.83;;;1.40;;
50932;SDS011;36921;49.006;9.292;2024-03-17T06:57:43;1.30;;;1.20;;
50932;SDS011;36921;49.006;9.292;2024-03-17T07:00:12;1.73;;;1.55;;
50932;SDS011;36921;49.006;9.292;2024-03-17T07:02:42;1.40;;;1.30;;
50932;SDS011;36921;49.006;9.292;2024-03-17T07:05:12;2.45;;;1.63;;
50932;SDS011;36921;49.006;9.292;2024-03-17T07:07:41;4.32;;;1.60;;
50932;SDS011;36921;49.006;9.292;2024-03-17T07:10:11;2.17;;;1.77;;
50932;SDS011;36921;49.006;9.292;2024-03-17T07:12:40;2.42;;;1.70;;
50932;SDS011;36921;49.006;9.292;2024-03-17T07:15:07;2.70;;;2.17;;
50932;SDS011;36921;49.006;9.292;2024-03-17T07:17:33;2.90;;;2.30;;
50932;SDS011;36921;49.006;9.292;2024-03-17T07:19:59;4.78;;;2.35;;
50932;SDS011;36921;49.006;9.292;2024-03-17T07:22:24;3.83;;;2.70;;
50932;SDS011;36921;49.006;9.292;2024-03-17T07:24:54;5.63;;;2.50;;
50932;SDS011;36921;49.006;9.292;2024-03-17T07:27:21;4.05;;;2.67;;
50932;SDS011;36921;49.006;9.292;2024-03-17T07:29:48;5.90;;;2.17;;
50932;SDS011;36921;49.006;9.292;2024-03-17T07:32:14;4.75;;;3.03;;
50932;SDS011;36921;49.006;9.292;2024-03-17T07:34:39;4.78;;;3.20;;
50932;SDS011;36921;49.006;9.292;2024-03-17T07:37:04;6.07;;;3.30;;
50932;SDS011;36921;49.006;9.292;2024-03-17T07:39:31;5.05;;;3.67;;
50932;SDS011;36921;49.006;9.292;2024-03-17T07:41:59;7.38;;;4.00;;
50932;SDS011;36921;49.006;9.292;2024-03-17T07:44:27;4.53;;;3.58;;
50932;SDS011;36921;49.006;9.292;2024-03-17T07:46:59;6.03;;;3.72;;
50932;SDS011;36921;49.006;9.292;2024-03-17T07:49:32;5.07;;;3.40;;
50932;SDS011;36921;49.006;9.292;2024-03-17T07:51:58;4.35;;;3.10;;
50932;SDS011;36921;49.006;9.292;2024-03-17T07:54:23;4.63;;;3.28;;
50932;SDS011;36921;49.006;9.292;2024-03-17T07:56:49;6.15;;;3.55;;
50932;SDS011;36921;49.006;9.292;2024-03-17T07:59:15;6.97;;;3.30;;
50932;SDS011;36921;49.006;9.292;2024-03-17T08:01:43;3.90;;;2.72;;
50932;SDS011;36921;49.006;9.292;2024-03-17T08:04:08;5.93;;;3.47;;
50932;SDS011;36921;49.006;9.292;2024-03-17T08:06:37;4.00;;;2.47;;
50932;SDS011;36921;49.006;9.292;2024-03-17T08:09:09;4.72;;;3.08;;
50932;SDS011;36921;49.006;9.292;2024-03-17T08:11:35;3.03;;;2.50;;
50932;SDS011;36921;49.006;9.292;2024-03-17T08:14:01;4.72;;;2.95;;
50932;SDS011;36921;49.006;9.292;2024-03-17T08:16:31;3.03;;;2.65;;
50932;SDS011;36921;49.006;9.292;2024-03-17T08:18:56;3.50;;;2.70;;
50932;SDS011;36921;49.006;9.292;2024-03-17T08:21:22;5.65;;;3.17;;
50932;SDS011;36921;49.006;9.292;2024-03-17T08:23:48;6.53;;;2.90;;
50932;SDS011;36921;49.006;9.292;2024-03-17T08:26:15;5.18;;;2.90;;
50932;SDS011;36921;49.006;9.292;2024-03-17T08:28:41;3.55;;;2.80;;
50932;SDS011;36921;49.006;9.292;2024-03-17T08:31:07;3.90;;;2.80;;
50932;SDS011;36921;49.006;9.292;2024-03-17T08:33:33;5.25;;;3.00;;
50932;SDS011;36921;49.006;9.292;2024-03-17T08:38:24;5.70;;;3.20;;
50932;SDS011;36921;49.006;9.292;2024-03-17T08:40:51;4.20;;;3.00;;
50932;SDS011;36921;49.006;9.292;2024-03-17T08:43:18;5.45;;;3.38;;
50932;SDS011;36921;49.006;9.292;2024-03-17T08:45:44;4.07;;;3.17;;
50932;SDS011;36921;49.006;9.292;2024-03-17T08:48:10;5.10;;;3.45;;
50932;SDS011;36921;49.006;9.292;2024-03-17T08:50:35;4.22;;;3.13;;
50932;SDS011;36921;49.006;9.292;2024-03-17T08:53:01;3.90;;;3.10;;
50932;SDS011;36921;49.006;9.292;2024-03-17T08:55:27;4.18;;;3.10;;
50932;SDS011;36921;49.006;9.292;2024-03-17T08:57:53;4.95;;;3.13;;
50932;SDS011;36921;49.006;9.292;2024-03-17T09:00:18;7.60;;;2.88;;
50932;SDS011;36921;49.006;9.292;2024-03-17T09:02:44;5.90;;;3.47;;
50932;SDS011;36921;49.006;9.292;2024-03-17T09:05:09;4.95;;;3.00;;
50932;SDS011;36921;49.006;9.292;2024-03-17T09:07:34;5.30;;;3.42;;
50932;SDS011;36921;49.006;9.292;2024-03-17T09:10:00;5.35;;;2.83;;
50932;SDS011;36921;49.006;9.292;2024-03-17T09:12:26;5.20;;;3.08;;
50932;SDS011;36921;49.006;9.292;2024-03-17T09:14:52;4.75;;;3.10;;
50932;SDS011;36921;49.006;9.292;2024-03-17T09:17:18;4.88;;;3.40;;
50932;SDS011;36921;49.006;9.292;2024-03-17T09:19:45;5.18;;;3.00;;
50932;SDS011;36921;49.006;9.292;2024-03-17T09:22:11;5.78;;;3.30;;
50932;SDS011;36921;49.006;9.292;2024-03-17T09:24:36;4.55;;;3.83;;
50932;SDS011;36921;49.006;9.292;2024-03-17T09:27:03;4.70;;;3.55;;
50932;SDS011;36921;49.006;9.292;2024-03-17T09:29:30;9.13;;;3.33;;
50932;SDS011;36921;49.006;9.292;2024-03-17T09:31:56;3.95;;;3.00;;
50932;SDS011;36921;49.006;9.292;2024-03-17T09:34:21;5.38;;;3.20;;
50932;SDS011;36921;49.006;9.292;2024-03-17T09:36:47;4.13;;;3.00;;
50932;SDS011;36921;49.006;9.292;2024-03-17T09:39:12;5.25;;;2.90;;
50932;SDS011;36921;49.006;9.292;2024-03-17T09:41:39;4.45;;;3.15;;
50932;SDS011;36921;49.006;9.292;2024-03-17T09:44:05;4.60;;;3.17;;
50932;SDS011;36921;49.006;9.292;2024-03-17T09:46:31;5.43;;;2.97;;
50932;SDS011;36921;49.006;9.292;2024-03-17T09:48:59;4.00;;;3.00;;
50932;SDS011;36921;49.006;9.292;2024-03-17T09:51:25;4.07;;;2.78;;
50932;SDS011;36921;49.006;9.292;2024-03-17T09:53:51;4.45;;;2.97;;
50932;SDS011;36921;49.006;9.292;2024-03-17T09:56:18;3.38;;;2.85;;
50932;SDS011;36921;49.006;9.292;2024-03-17T09:58:50;4.18;;;3.28;;
50932;SDS011;36921;49.006;9.292;2024-03-17T10:01:18;5.97;;;3.10;;
50932;SDS011;36921;49.006;9.292;2024-03-17T10:06:45;4.32;;;3.03;;
50932;SDS011;36921;49.006;9.292;2024-03-17T10:09:16;4.57;;;3.20;;
50932;SDS011;36921;49.006;9.292;2024-03-17T10:11:48;6.55;;;3.20;;
50932;SDS011;36921;49.006;9.292;2024-03-17T10:14:16;6.18;;;2.97;;
50932;SDS011;36921;49.006;9.292;2024-03-17T10:16:42;3.58;;;2.67;;
50932;SDS011;36921;49.006;9.292;2024-03-17T10:19:30;5.85;;;2.97;;
50932;SDS011;36921;49.006;9.292;2024-03-17T10:22:00;5.75;;;3.20;;
50932;SDS011;36921;49.006;9.292;2024-03-17T10:24:27;6.03;;;2.92;;
50932;SDS011;36921;49.006;9.292;2024-03-17T10:27:01;4.70;;;2.50;;
50932;SDS011;36921;49.006;9.292;2024-03-17T10:29:28;4.05;;;2.40;;
50932;SDS011;36921;49.006;9.292;2024-03-17T10:32:14;4.78;;;2.50;;
50932;SDS011;36921;49.006;9.292;2024-03-17T10:34:43;5.13;;;2.70;;
50932;SDS011;36921;49.006;9.292;2024-03-17T10:37:11;5.50;;;2.50;;
50932;SDS011;36921;49.006;9.292;2024-03-17T10:39:42;5.78;;;2.42;;
50932;SDS011;36921;49.006;9.292;2024-03-17T10:42:10;4.32;;;2.75;;
50932;SDS011;36921;49.006;9.292;2024-03-17T10:44:37;3.17;;;2.30;;
50932;SDS011;36921;49.006;9.292;2024-03-17T10:47:04;4.88;;;2.42;;
50932;SDS011;36921;49.006;9.292;2024-03-17T10:49:37;4.40;;;2.63;;
50932;SDS011;36921;49.006;9.292;2024-03-17T10:52:15;3.42;;;2.10;;
50932;SDS011;36921;49.006;9.292;2024-03-17T10:54:49;3.72;;;2.60;;
50932;SDS011;36921;49.006;9.292;2024-03-17T10:59:58;3.22;;;2.10;;
50932;SDS011;36921;49.006;9.292;2024-03-17T11:02:28;3.15;;;1.80;;
50932;SDS011;36921;49.006;9.292;2024-03-17T11:04:58;3.50;;;2.20;;
50932;SDS011;36921;49.006;9.292;2024-03-17T11:07:25;3.78;;;2.05;;
50932;SDS011;36921;49.006;9.292;2024-03-17T11:09:52;3.80;;;1.60;;
50932;SDS011;36921;49.006;9.292;2024-03-17T11:20:34;3.40;;;1.80;;
50932;SDS011;36921;49.006;9.292;2024-03-17T11:23:00;3.97;;;1.85;;
50932;SDS011;36921;49.006;9.292;2024-03-17T11:30:42;2.05;;;1.55;;
50932;SDS011;36921;49.006;9.292;2024-03-17T11:44:13;3.42;;;2.25;;
50932;SDS011;36921;49.006;9.292;2024-03-17T11:47:00;3.22;;;2.00;;
50932;SDS011;36921;49.006;9.292;2024-03-17T11:49:27;4.63;;;2.58;;
50932;SDS011;36921;49.006;9.292;2024-03-17T11:52:02;4.38;;;2.38;;
50932;SDS011;36921;49.006;9.292;2024-03-17T11:54:30;3.85;;;2.30;;
50932;SDS011;36921;49.006;9.292;2024-03-17T11:57:31;5.15;;;2.50;;
50932;SDS011;36921;49.006;9.292;2024-03-17T11:59:51;3.47;;;2.00;;
50932;SDS011;36921;49.006;9.292;2024-03-17T12:02:25;3.58;;;2.50;;
50932;SDS011;36921;49.006;9.292;2024-03-17T12:04:52;3.47;;;1.80;;
50932;SDS011;36921;49.006;9.292;2024-03-17T12:07:19;3.20;;;1.80;;
50932;SDS011;36921;49.006;9.292;2024-03-17T12:09:46;2.65;;;1.52;;
50932;SDS011;36921;49.006;9.292;2024-03-17T12:12:21;3.85;;;2.28;;
50932;SDS011;36921;49.006;9.292;2024-03-17T12:14:49;2.45;;;1.65;;
50932;SDS011;36921;49.006;9.292;2024-03-17T12:17:22;3.35;;;2.00;;
50932;SDS011;36921;49.006;9.292;2024-03-17T12:19:48;4.25;;;2.30;;
50932;SDS011;36921;49.006;9.292;2024-03-17T12:22:18;5.75;;;1.75;;
50932;SDS011;36921;49.006;9.292;2024-03-17T12:24:47;3.25;;;1.50;;
50932;SDS011;36921;49.006;9.292;2024-03-17T12:27:23;2.88;;;1.80;;
50932;SDS011;36921;49.006;9.292;2024-03-17T12:29:50;4.43;;;2.10;;
50932;SDS011;36921;49.006;9.292;2024-03-17T12:32:17;3.50;;;1.60;;
50932;SDS011;36921;49.006;9.292;2024-03-17T12:34:45;2.47;;;1.70;;
50932;SDS011;36921;49.006;9.292;2024-03-17T12:37:14;7.50;;;2.40;;
50932;SDS011;36921;49.006;9.292;2024-03-17T12:39:43;3.55;;;1.85;;
50932;SDS011;36921;49.006;9.292;2024-03-17T12:42:09;3.25;;;2.17;;
50932;SDS011;36921;49.006;9.292;2024-03-17T12:44:36;3.05;;;2.10;;
50932;SDS011;36921;49.006;9.292;2024-03-17T12:47:06;2.42;;;1.85;;
50932;SDS011;36921;49.006;9.292;2024-03-17T12:49:33;1.98;;;1.48;;
50932;SDS011;36921;49.006;9.292;2024-03-17T12:51:59;3.78;;;1.92;;
50932;SDS011;36921;49.006;9.292;2024-03-17T12:54:26;2.78;;;1.83;;
50932;SDS011;36921;49.006;9.292;2024-03-17T12:57:13;4.70;;;2.17;;
50932;SDS011;36921;49.006;9.292;2024-03-17T12:59:56;4.47;;;2.50;;
50932;SDS011;36921;49.006;9.292;2024-03-17T13:02:41;4.90;;;2.30;;
50932;SDS011;36921;49.006;9.292;2024-03-17T13:05:07;4.45;;;2.25;;
50932;SDS011;36921;49.006;9.292;2024-03-17T13:07:38;4.93;;;2.70;;
50932;SDS011;36921;49.006;9.292;2024-03-17T13:10:03;4.40;;;2.05;;
50932;SDS011;36921;49.006;9.292;2024-03-17T13:12:29;4.30;;;1.77;;
50932;SDS011;36921;49.006;9.292;2024-03-17T13:14:55;3.97;;;2.00;;
50932;SDS011;36921;49.006;9.292;2024-03-17T13:17:20;2.92;;;1.75;;
50932;SDS011;36921;49.006;9.292;2024-03-17T13:19:45;3.90;;;1.92;;
50932;SDS011;36921;49.006;9.292;2024-03-17T13:22:11;6.13;;;2.00;;
50932;SDS011;36921;49.006;9.292;2024-03-17T13:24:37;7.15;;;2.03;;
50932;SDS011;36921;49.006;9.292;2024-03-17T13:27:02;3.08;;;1.73;;
50932;SDS011;36921;49.006;9.292;2024-03-17T13:29:31;5.90;;;2.08;;
50932;SDS011;36921;49.006;9.292;2024-03-17T13:31:58;6.72;;;2.25;;
50932;SDS011;36921;49.006;9.292;2024-03-17T13:34:23;6.80;;;1.80;;
50932;SDS011;36921;49.006;9.292;2024-03-17T13:36:52;3.22;;;1.80;;
50932;SDS011;36921;49.006;9.292;2024-03-17T13:39:18;3.58;;;1.75;;
50932;SDS011;36921;49.006;9.292;2024-03-17T13:41:45;4.85;;;1.92;;
50932;SDS011;36921;49.006;9.292;2024-03-17T13:44:11;3.45;;;1.88;;
50932;SDS011;36921;49.006;9.292;2024-03-17T13:46:37;4.07;;;1.77;;
50932;SDS011;36921;49.006;9.292;2024-03-17T13:49:07;4.40;;;1.70;;
50932;SDS011;36921;49.006;9.292;2024-03-17T13:51:35;3.53;;;2.10;;
50932;SDS011;36921;49.006;9.292;2024-03-17T13:54:01;5.72;;;1.85;;
50932;SDS011;36921;49.006;9.292;2024-03-17T13:56:27;4.18;;;1.83;;
50932;SDS011;36921;49.006;9.292;2024-03-17T13:58:53;3.38;;;1.73;;
50932;SDS011;36921;49.006;9.292;2024-03-17T14:01:18;4.60;;;2.35;;
50932;SDS011;36921;49.006;9.292;2024-03-17T14:03:43;3.33;;;2.10;;
50932;SDS011;36921;49.006;9.292;2024-03-17T14:06:10;4.78;;;2.00;;
50932;SDS011;36921;49.006;9.292;2024-03-17T14:08:36;4.78;;;2.20;;
50932;SDS011;36921;49.006;9.292;2024-03-17T14:11:01;3.95;;;1.73;;
50932;SDS011;36921;49.006;9.292;2024-03-17T14:13:26;3.05;;;1.88;;
50932;SDS011;36921;49.006;9.292;2024-03-17T14:15:55;4.53;;;1.80;;
50932;SDS011;36921;49.006;9.292;2024-03-17T14:18:21;4.25;;;1.83;;
50932;SDS011;36921;49.006;9.292;2024-03-17T14:20:46;7.95;;;2.40;;
50932;SDS011;36921;49.006;9.292;2024-03-17T14:23:12;4.00;;;2.30;;
50932;SDS011;36921;49.006;9.292;2024-03-17T14:25:37;3.78;;;2.05;;
50932;SDS011;36921;49.006;9.292;2024-03-17T14:28:04;4.95;;;2.10;;
50932;SDS011;36921;49.006;9.292;2024-03-17T14:30:30;6.43;;;2.22;;
50932;SDS011;36921;49.006;9.292;2024-03-17T14:32:55;6.13;;;2.00;;
50932;SDS011;36921;49.006;9.292;2024-03-17T14:35:21;3.45;;;1.92;;
50932;SDS011;36921;49.006;9.292;2024-03-17T14:37:47;3.30;;;1.77;;
50932;SDS011;36921;49.006;9.292;2024-03-17T14:40:14;3.10;;;1.83;;
50932;SDS011;36921;49.006;9.292;2024-03-17T14:42:46;3.42;;;2.20;;
50932;SDS011;36921;49.006;9.292;2024-03-17T14:45:11;2.70;;;1.67;;
50932;SDS011;36921;49.006;9.292;2024-03-17T14:47:37;3.88;;;1.80;;
50932;SDS011;36921;49.006;9.292;2024-03-17T14:50:02;6.07;;;2.53;;
50932;SDS011;36921;49.006;9.292;2024-03-17T14:52:27;3.33;;;2.03;;
50932;SDS011;36921;49.006;9.292;2024-03-17T14:54:53;3.90;;;1.90;;
50932;SDS011;36921;49.006;9.292;2024-03-17T14:57:21;2.57;;;1.50;;
50932;SDS011;36921;49.006;9.292;2024-03-17T14:59:47;8.23;;;2.30;;
50932;SDS011;36921;49.006;9.292;2024-03-17T15:02:12;3.70;;;1.60;;
50932;SDS011;36921;49.006;9.292;2024-03-17T15:04:37;3.05;;;2.10;;
50932;SDS011;36921;49.006;9.292;2024-03-17T15:07:03;2.60;;;1.60;;
50932;SDS011;36921;49.006;9.292;2024-03-17T15:09:28;4.25;;;1.90;;
50932;SDS011;36921;49.006;9.292;2024-03-17T15:11:53;4.25;;;1.80;;
50932;SDS011;36921;49.006;9.292;2024-03-17T15:14:19;6.15;;;1.77;;
50932;SDS011;36921;49.006;9.292;2024-03-17T15:16:45;2.10;;;1.42;;
50932;SDS011;36921;49.006;9.292;2024-03-17T15:19:10;4.95;;;1.70;;
50932;SDS011;36921;49.006;9.292;2024-03-17T15:21:35;3.88;;;1.40;;
50932;SDS011;36921;49.006;9.292;2024-03-17T15:24:01;3.65;;;1.70;;
50932;SDS011;36921;49.006;9.292;2024-03-17T15:26:29;4.18;;;1.67;;
50932;SDS011;36921;49.006;9.292;2024-03-17T15:28:54;4.70;;;1.67;;
50932;SDS011;36921;49.006;9.292;2024-03-17T15:31:20;4.10;;;2.00;;
50932;SDS011;36921;49.006;9.292;2024-03-17T15:33:49;3.40;;;1.70;;
50932;SDS011;36921;49.006;9.292;2024-03-17T15:36:15;6.03;;;1.60;;